sensor_id;sensor_type;location;lat;lon;timestamp;temperature;humidity
71754;DHT22;59593;51.716;7.016;2022-08-19T00:01:10;18.20;99.90
71754;DHT22;59593;51.716;7.016;2022-08-19T00:03:35;18.20;99.90
71754;DHT22;59593;51.716;7.016;2022-08-19T00:06:04;18.10;99.90
71754;DHT22;59593;51.716;7.016;2022-08-19T00:08:30;18.10;99.90
71754;DHT22;59593;51.716;7.016;2022-08-19T00:10:56;18.10;99.90
71754;DHT22;59593;51.716;7.016;2022-08-19T00:13:22;18.20;99.90
71754;DHT22;59593;51.716;7.016;2022-08-19T00:15:48;18.20;99.90
71754;DHT22;59593;51.716;7.016;2022-08-19T00:18:13;18.10;99.90
71754;DHT22;59593;51.716;7.016;2022-08-19T00:20:39;18.10;99.90
71754;DHT22;59593;51.716;7.016;2022-08-19T00:23:06;18.10;99.90
71754;DHT22;59593;51.716;7.016;2022-08-19T00:25:32;18.10;99.90
71754;DHT22;59593;51.716;7.016;2022-08-19T00:27:58;18.10;99.90
71754;DHT22;59593;51.716;7.016;2022-08-19T00:30:24;18.10;99.90
71754;DHT22;59593;51.716;7.016;2022-08-19T00:32:51;18.00;99.90
71754;DHT22;59593;51.716;7.016;2022-08-19T00:35:16;18.00;99.90
71754;DHT22;59593;51.716;7.016;2022-08-19T00:37:42;18.00;99.90
71754;DHT22;59593;51.716;7.016;2022-08-19T00:40:10;18.00;99.90
71754;DHT22;59593;51.716;7.016;2022-08-19T00:42:36;17.90;99.90
71754;DHT22;59593;51.716;7.016;2022-08-19T00:45:10;17.80;99.90
71754;DHT22;59593;51.716;7.016;2022-08-19T00:47:36;17.70;99.90
71754;DHT22;59593;51.716;7.016;2022-08-19T00:50:03;17.80;99.90
71754;DHT22;59593;51.716;7.016;2022-08-19T00:52:35;17.80;99.90
71754;DHT22;59593;51.716;7.016;2022-08-19T00:55:04;17.90;99.90
71754;DHT22;59593;51.716;7.016;2022-08-19T00:57:36;17.90;99.90
71754;DHT22;59593;51.716;7.016;2022-08-19T01:00:08;17.90;99.90
71754;DHT22;59593;51.716;7.016;2022-08-19T01:02:36;17.90;99.90
71754;DHT22;59593;51.716;7.016;2022-08-19T01:05:05;17.90;99.90
71754;DHT22;59593;51.716;7.016;2022-08-19T01:07:33;17.90;99.90
71754;DHT22;59593;51.716;7.016;2022-08-19T01:09:59;17.80;99.90
71754;DHT22;59593;51.716;7.016;2022-08-19T01:12:25;17.70;99.90
71754;DHT22;59593;51.716;7.016;2022-08-19T01:14:51;17.70;99.90
71754;DHT22;59593;51.716;7.016;2022-08-19T01:17:17;17.60;99.90
71754;DHT22;59593;51.716;7.016;2022-08-19T01:19:45;17.60;99.90
71754;DHT22;59593;51.716;7.016;2022-08-19T01:22:35;17.60;99.90
71754;DHT22;59593;51.716;7.016;2022-08-19T01:25:02;17.50;99.90
71754;DHT22;59593;51.716;7.016;2022-08-19T01:27:38;17.50;99.90
71754;DHT22;59593;51.716;7.016;2022-08-19T01:30:05;17.50;99.90
71754;DHT22;59593;51.716;7.016;2022-08-19T01:32:31;17.60;99.90
71754;DHT22;59593;51.716;7.016;2022-08-19T01:34:57;17.60;99.90
71754;DHT22;59593;51.716;7.016;2022-08-19T01:37:23;17.60;99.90
71754;DHT22;59593;51.716;7.016;2022-08-19T01:39:49;17.60;99.90
71754;DHT22;59593;51.716;7.016;2022-08-19T01:42:15;17.60;99.90
71754;DHT22;59593;51.716;7.016;2022-08-19T01:44:41;17.60;99.90
71754;DHT22;59593;51.716;7.016;2022-08-19T01:47:07;17.50;99.90
71754;DHT22;59593;51.716;7.016;2022-08-19T01:49:35;17.50;99.90
71754;DHT22;59593;51.716;7.016;2022-08-19T01:52:01;17.50;99.90
71754;DHT22;59593;51.716;7.016;2022-08-19T01:54:28;17.40;99.90
71754;DHT22;59593;51.716;7.016;2022-08-19T01:57:00;17.40;99.90
71754;DHT22;59593;51.716;7.016;2022-08-19T01:59:27;17.30;99.90
71754;DHT22;59593;51.716;7.016;2022-08-19T02:01:53;17.30;99.90
71754;DHT22;59593;51.716;7.016;2022-08-19T02:04:18;17.30;99.90
71754;DHT22;59593;51.716;7.016;2022-08-19T02:06:44;17.30;99.90
71754;DHT22;59593;51.716;7.016;2022-08-19T02:09:09;17.30;99.90
71754;DHT22;59593;51.716;7.016;2022-08-19T02:11:36;17.40;99.90
71754;DHT22;59593;51.716;7.016;2022-08-19T02:14:05;17.30;99.90
71754;DHT22;59593;51.716;7.016;2022-08-19T02:16:32;17.30;99.90
71754;DHT22;59593;51.716;7.016;2022-08-19T02:18:58;17.30;99.90
71754;DHT22;59593;51.716;7.016;2022-08-19T02:21:26;17.30;99.90
71754;DHT22;59593;51.716;7.016;2022-08-19T02:23:51;17.30;99.90
71754;DHT22;59593;51.716;7.016;2022-08-19T02:26:17;17.10;99.90
71754;DHT22;59593;51.716;7.016;2022-08-19T02:28:44;17.10;99.90
71754;DHT22;59593;51.716;7.016;2022-08-19T02:31:11;17.10;99.90
71754;DHT22;59593;51.716;7.016;2022-08-19T02:33:37;17.00;99.90
71754;DHT22;59593;51.716;7.016;2022-08-19T02:36:05;16.90;99.90
71754;DHT22;59593;51.716;7.016;2022-08-19T02:38:31;16.90;99.90
71754;DHT22;59593;51.716;7.016;2022-08-19T02:41:33;16.90;99.90
71754;DHT22;59593;51.716;7.016;2022-08-19T02:43:53;16.90;99.90
71754;DHT22;59593;51.716;7.016;2022-08-19T02:46:23;16.90;99.90
71754;DHT22;59593;51.716;7.016;2022-08-19T02:48:51;16.90;99.90
71754;DHT22;59593;51.716;7.016;2022-08-19T02:51:31;16.80;99.90
71754;DHT22;59593;51.716;7.016;2022-08-19T02:53:57;16.80;99.90
71754;DHT22;59593;51.716;7.016;2022-08-19T02:56:24;16.70;99.90
71754;DHT22;59593;51.716;7.016;2022-08-19T02:58:52;16.90;99.90
71754;DHT22;59593;51.716;7.016;2022-08-19T03:01:29;16.80;99.90
71754;DHT22;59593;51.716;7.016;2022-08-19T03:03:59;16.80;99.90
71754;DHT22;59593;51.716;7.016;2022-08-19T03:06:26;16.70;99.90
71754;DHT22;59593;51.716;7.016;2022-08-19T03:08:52;16.70;99.90
71754;DHT22;59593;51.716;7.016;2022-08-19T03:11:24;16.80;99.90
71754;DHT22;59593;51.716;7.016;2022-08-19T03:13:51;16.90;99.90
71754;DHT22;59593;51.716;7.016;2022-08-19T03:16:21;16.90;99.90
71754;DHT22;59593;51.716;7.016;2022-08-19T03:18:47;16.90;99.90
71754;DHT22;59593;51.716;7.016;2022-08-19T03:21:22;16.90;99.90
71754;DHT22;59593;51.716;7.016;2022-08-19T03:23:49;16.80;99.90
71754;DHT22;59593;51.716;7.016;2022-08-19T03:26:16;16.80;99.90
71754;DHT22;59593;51.716;7.016;2022-08-19T03:28:44;16.70;99.90
71754;DHT22;59593;51.716;7.016;2022-08-19T03:31:12;16.70;99.90
71754;DHT22;59593;51.716;7.016;2022-08-19T03:33:39;16.70;99.90
71754;DHT22;59593;51.716;7.016;2022-08-19T03:38:33;16.70;99.90
71754;DHT22;59593;51.716;7.016;2022-08-19T03:41:03;16.60;99.90
71754;DHT22;59593;51.716;7.016;2022-08-19T03:43:32;16.60;99.90
71754;DHT22;59593;51.716;7.016;2022-08-19T03:46:07;16.60;99.90
71754;DHT22;59593;51.716;7.016;2022-08-19T03:48:34;16.70;99.90
71754;DHT22;59593;51.716;7.016;2022-08-19T03:51:00;16.60;99.90
71754;DHT22;59593;51.716;7.016;2022-08-19T03:53:27;16.50;99.90
71754;DHT22;59593;51.716;7.016;2022-08-19T03:55:54;16.50;99.90
71754;DHT22;59593;51.716;7.016;2022-08-19T03:58:21;16.30;99.90
71754;DHT22;59593;51.716;7.016;2022-08-19T04:00:47;16.30;99.90
71754;DHT22;59593;51.716;7.016;2022-08-19T04:03:13;16.30;99.90
71754;DHT22;59593;51.716;7.016;2022-08-19T04:05:38;16.30;99.90
71754;DHT22;59593;51.716;7.016;2022-08-19T04:08:04;16.30;99.90
71754;DHT22;59593;51.716;7.016;2022-08-19T04:10:36;16.30;99.90
71754;DHT22;59593;51.716;7.016;2022-08-19T04:13:03;16.40;99.90
71754;DHT22;59593;51.716;7.016;2022-08-19T04:15:29;16.50;99.90
71754;DHT22;59593;51.716;7.016;2022-08-19T04:17:58;16.60;99.90
71754;DHT22;59593;51.716;7.016;2022-08-19T04:20:24;16.60;99.90
71754;DHT22;59593;51.716;7.016;2022-08-19T04:22:49;16.70;99.90
71754;DHT22;59593;51.716;7.016;2022-08-19T04:25:15;16.60;99.90
71754;DHT22;59593;51.716;7.016;2022-08-19T04:27:41;16.60;99.90
71754;DHT22;59593;51.716;7.016;2022-08-19T04:30:08;16.60;99.90
71754;DHT22;59593;51.716;7.016;2022-08-19T04:32:34;16.60;99.90
71754;DHT22;59593;51.716;7.016;2022-08-19T04:35:00;16.50;99.90
71754;DHT22;59593;51.716;7.016;2022-08-19T04:37:27;16.50;99.90
71754;DHT22;59593;51.716;7.016;2022-08-19T04:39:52;16.50;99.90
71754;DHT22;59593;51.716;7.016;2022-08-19T04:42:37;16.60;99.90
71754;DHT22;59593;51.716;7.016;2022-08-19T04:45:09;16.60;99.90
71754;DHT22;59593;51.716;7.016;2022-08-19T04:47:36;16.60;99.90
71754;DHT22;59593;51.716;7.016;2022-08-19T04:50:02;16.60;99.90
71754;DHT22;59593;51.716;7.016;2022-08-19T04:52:28;16.60;99.90
71754;DHT22;59593;51.716;7.016;2022-08-19T04:54:56;16.60;99.90
71754;DHT22;59593;51.716;7.016;2022-08-19T04:57:22;16.60;99.90
71754;DHT22;59593;51.716;7.016;2022-08-19T04:59:48;16.60;99.90
71754;DHT22;59593;51.716;7.016;2022-08-19T05:02:14;16.60;99.90
71754;DHT22;59593;51.716;7.016;2022-08-19T05:04:39;16.60;99.90
71754;DHT22;59593;51.716;7.016;2022-08-19T05:07:07;16.70;99.90
71754;DHT22;59593;51.716;7.016;2022-08-19T05:09:32;16.80;99.90
71754;DHT22;59593;51.716;7.016;2022-08-19T05:11:58;16.80;99.90
71754;DHT22;59593;51.716;7.016;2022-08-19T05:14:24;16.80;99.90
71754;DHT22;59593;51.716;7.016;2022-08-19T05:16:50;16.90;99.90
71754;DHT22;59593;51.716;7.016;2022-08-19T05:19:16;16.90;99.90
71754;DHT22;59593;51.716;7.016;2022-08-19T05:22:00;17.10;99.90
71754;DHT22;59593;51.716;7.016;2022-08-19T05:24:44;17.10;99.90
71754;DHT22;59593;51.716;7.016;2022-08-19T05:27:10;17.20;99.90
71754;DHT22;59593;51.716;7.016;2022-08-19T05:29:35;17.30;99.90
71754;DHT22;59593;51.716;7.016;2022-08-19T05:32:04;17.40;99.90
71754;DHT22;59593;51.716;7.016;2022-08-19T05:34:31;17.30;99.90
71754;DHT22;59593;51.716;7.016;2022-08-19T05:36:59;17.40;99.90
71754;DHT22;59593;51.716;7.016;2022-08-19T05:39:28;17.50;99.90
71754;DHT22;59593;51.716;7.016;2022-08-19T05:42:05;17.60;99.90
71754;DHT22;59593;51.716;7.016;2022-08-19T05:44:38;17.80;99.90
71754;DHT22;59593;51.716;7.016;2022-08-19T05:47:06;17.90;99.90
71754;DHT22;59593;51.716;7.016;2022-08-19T05:49:35;18.00;99.90
71754;DHT22;59593;51.716;7.016;2022-08-19T05:52:06;18.20;99.90
71754;DHT22;59593;51.716;7.016;2022-08-19T05:54:34;18.30;99.90
71754;DHT22;59593;51.716;7.016;2022-08-19T05:57:01;18.50;99.90
71754;DHT22;59593;51.716;7.016;2022-08-19T05:59:27;18.70;99.90
71754;DHT22;59593;51.716;7.016;2022-08-19T06:01:54;18.80;99.90
71754;DHT22;59593;51.716;7.016;2022-08-19T06:04:21;18.90;99.90
71754;DHT22;59593;51.716;7.016;2022-08-19T06:06:50;19.00;99.90
71754;DHT22;59593;51.716;7.016;2022-08-19T06:09:17;19.00;99.90
71754;DHT22;59593;51.716;7.016;2022-08-19T06:11:55;19.10;99.90
71754;DHT22;59593;51.716;7.016;2022-08-19T06:14:34;19.00;99.90
71754;DHT22;59593;51.716;7.016;2022-08-19T06:17:00;19.00;99.90
71754;DHT22;59593;51.716;7.016;2022-08-19T06:19:28;19.10;99.90
71754;DHT22;59593;51.716;7.016;2022-08-19T06:21:58;19.10;99.90
71754;DHT22;59593;51.716;7.016;2022-08-19T06:24:26;19.20;99.90
71754;DHT22;59593;51.716;7.016;2022-08-19T06:26:54;19.20;99.90
71754;DHT22;59593;51.716;7.016;2022-08-19T06:29:23;19.20;99.90
71754;DHT22;59593;51.716;7.016;2022-08-19T06:31:51;19.30;99.90
71754;DHT22;59593;51.716;7.016;2022-08-19T06:34:17;19.40;99.90
71754;DHT22;59593;51.716;7.016;2022-08-19T06:36:46;19.70;99.90
71754;DHT22;59593;51.716;7.016;2022-08-19T06:39:14;19.90;99.90
71754;DHT22;59593;51.716;7.016;2022-08-19T06:41:44;19.90;99.90
71754;DHT22;59593;51.716;7.016;2022-08-19T06:44:11;20.10;99.90
71754;DHT22;59593;51.716;7.016;2022-08-19T06:46:38;20.30;99.90
71754;DHT22;59593;51.716;7.016;2022-08-19T06:49:04;20.30;99.90
71754;DHT22;59593;51.716;7.016;2022-08-19T06:51:30;20.40;99.90
71754;DHT22;59593;51.716;7.016;2022-08-19T06:53:58;20.50;99.90
71754;DHT22;59593;51.716;7.016;2022-08-19T06:56:27;20.60;99.90
71754;DHT22;59593;51.716;7.016;2022-08-19T06:59:06;20.60;99.90
71754;DHT22;59593;51.716;7.016;2022-08-19T07:01:52;20.80;99.90
71754;DHT22;59593;51.716;7.016;2022-08-19T07:04:21;20.80;99.90
71754;DHT22;59593;51.716;7.016;2022-08-19T07:06:47;20.80;99.90
71754;DHT22;59593;51.716;7.016;2022-08-19T07:09:15;20.90;99.90
71754;DHT22;59593;51.716;7.016;2022-08-19T07:11:45;21.00;99.90
71754;DHT22;59593;51.716;7.016;2022-08-19T07:14:12;21.00;99.90
71754;DHT22;59593;51.716;7.016;2022-08-19T07:16:38;21.10;99.90
71754;DHT22;59593;51.716;7.016;2022-08-19T07:19:03;21.10;99.90
71754;DHT22;59593;51.716;7.016;2022-08-19T07:21:29;21.20;99.90
71754;DHT22;59593;51.716;7.016;2022-08-19T07:23:56;21.40;99.90
71754;DHT22;59593;51.716;7.016;2022-08-19T07:26:25;21.50;99.90
71754;DHT22;59593;51.716;7.016;2022-08-19T07:28:51;21.60;99.90
71754;DHT22;59593;51.716;7.016;2022-08-19T07:31:20;21.70;99.90
71754;DHT22;59593;51.716;7.016;2022-08-19T07:33:48;21.70;99.90
71754;DHT22;59593;51.716;7.016;2022-08-19T07:36:17;21.70;99.90
71754;DHT22;59593;51.716;7.016;2022-08-19T07:38:46;21.80;99.90
71754;DHT22;59593;51.716;7.016;2022-08-19T07:41:18;21.90;99.90
71754;DHT22;59593;51.716;7.016;2022-08-19T07:43:44;22.00;99.90
71754;DHT22;59593;51.716;7.016;2022-08-19T07:46:11;22.10;99.90
71754;DHT22;59593;51.716;7.016;2022-08-19T07:48:40;22.20;99.90
71754;DHT22;59593;51.716;7.016;2022-08-19T07:51:07;22.30;99.90
71754;DHT22;59593;51.716;7.016;2022-08-19T07:53:35;22.40;99.90
71754;DHT22;59593;51.716;7.016;2022-08-19T07:56:02;22.40;99.90
71754;DHT22;59593;51.716;7.016;2022-08-19T07:58:36;22.50;99.90
71754;DHT22;59593;51.716;7.016;2022-08-19T08:01:05;22.70;99.90
71754;DHT22;59593;51.716;7.016;2022-08-19T08:03:32;22.80;99.90
71754;DHT22;59593;51.716;7.016;2022-08-19T08:06:16;22.90;99.90
71754;DHT22;59593;51.716;7.016;2022-08-19T08:09:04;22.90;99.90
71754;DHT22;59593;51.716;7.016;2022-08-19T08:11:50;23.10;99.90
71754;DHT22;59593;51.716;7.016;2022-08-19T08:14:20;23.20;99.90
71754;DHT22;59593;51.716;7.016;2022-08-19T08:16:47;22.90;99.90
71754;DHT22;59593;51.716;7.016;2022-08-19T08:19:14;23.10;99.90
71754;DHT22;59593;51.716;7.016;2022-08-19T08:21:42;23.20;99.90
71754;DHT22;59593;51.716;7.016;2022-08-19T08:24:08;23.30;99.90
71754;DHT22;59593;51.716;7.016;2022-08-19T08:26:34;23.20;99.90
71754;DHT22;59593;51.716;7.016;2022-08-19T08:29:00;23.20;99.90
71754;DHT22;59593;51.716;7.016;2022-08-19T08:31:26;23.10;99.90
71754;DHT22;59593;51.716;7.016;2022-08-19T08:33:53;23.10;99.90
71754;DHT22;59593;51.716;7.016;2022-08-19T08:36:20;23.20;99.90
71754;DHT22;59593;51.716;7.016;2022-08-19T08:38:46;23.30;99.90
71754;DHT22;59593;51.716;7.016;2022-08-19T08:41:36;23.30;99.90
71754;DHT22;59593;51.716;7.016;2022-08-19T08:44:04;23.30;99.90
71754;DHT22;59593;51.716;7.016;2022-08-19T08:46:38;23.40;99.90
71754;DHT22;59593;51.716;7.016;2022-08-19T08:49:31;23.60;99.90
71754;DHT22;59593;51.716;7.016;2022-08-19T08:52:05;23.80;99.90
71754;DHT22;59593;51.716;7.016;2022-08-19T08:54:41;23.90;99.90
71754;DHT22;59593;51.716;7.016;2022-08-19T08:57:27;24.20;99.90
71754;DHT22;59593;51.716;7.016;2022-08-19T08:59:54;24.00;99.90
71754;DHT22;59593;51.716;7.016;2022-08-19T09:02:22;23.80;99.90
71754;DHT22;59593;51.716;7.016;2022-08-19T09:04:48;23.80;99.90
71754;DHT22;59593;51.716;7.016;2022-08-19T09:10:16;24.10;99.90
71754;DHT22;59593;51.716;7.016;2022-08-19T09:12:57;24.10;99.90
71754;DHT22;59593;51.716;7.016;2022-08-19T09:15:34;24.20;99.90
71754;DHT22;59593;51.716;7.016;2022-08-19T09:18:02;24.20;99.90
71754;DHT22;59593;51.716;7.016;2022-08-19T09:20:29;23.90;99.90
71754;DHT22;59593;51.716;7.016;2022-08-19T09:22:56;24.20;99.90
71754;DHT22;59593;51.716;7.016;2022-08-19T09:25:24;24.20;99.90
71754;DHT22;59593;51.716;7.016;2022-08-19T09:27:50;24.40;99.90
71754;DHT22;59593;51.716;7.016;2022-08-19T09:30:25;24.50;99.90
71754;DHT22;59593;51.716;7.016;2022-08-19T09:32:51;24.40;99.90
71754;DHT22;59593;51.716;7.016;2022-08-19T09:35:22;24.00;99.90
71754;DHT22;59593;51.716;7.016;2022-08-19T09:37:48;23.80;99.90
71754;DHT22;59593;51.716;7.016;2022-08-19T09:40:15;23.90;99.90
71754;DHT22;59593;51.716;7.016;2022-08-19T09:42:42;23.80;99.90
71754;DHT22;59593;51.716;7.016;2022-08-19T09:45:09;23.80;99.90
71754;DHT22;59593;51.716;7.016;2022-08-19T09:47:36;23.90;99.90
71754;DHT22;59593;51.716;7.016;2022-08-19T09:50:05;23.80;99.90
71754;DHT22;59593;51.716;7.016;2022-08-19T09:52:31;23.80;99.90
71754;DHT22;59593;51.716;7.016;2022-08-19T09:54:57;24.10;99.90
71754;DHT22;59593;51.716;7.016;2022-08-19T09:57:23;24.30;99.90
71754;DHT22;59593;51.716;7.016;2022-08-19T09:59:48;24.40;99.90
71754;DHT22;59593;51.716;7.016;2022-08-19T10:02:14;24.50;99.90
71754;DHT22;59593;51.716;7.016;2022-08-19T10:04:39;24.50;99.90
71754;DHT22;59593;51.716;7.016;2022-08-19T10:07:23;24.40;99.90
71754;DHT22;59593;51.716;7.016;2022-08-19T10:09:50;24.20;99.90
71754;DHT22;59593;51.716;7.016;2022-08-19T10:12:15;24.70;99.90
71754;DHT22;59593;51.716;7.016;2022-08-19T10:14:41;25.20;99.90
71754;DHT22;59593;51.716;7.016;2022-08-19T10:17:07;25.40;99.90
71754;DHT22;59593;51.716;7.016;2022-08-19T10:19:33;25.20;99.90
71754;DHT22;59593;51.716;7.016;2022-08-19T10:22:05;25.20;99.90
71754;DHT22;59593;51.716;7.016;2022-08-19T10:24:31;25.30;99.90
71754;DHT22;59593;51.716;7.016;2022-08-19T10:26:58;25.40;99.90
71754;DHT22;59593;51.716;7.016;2022-08-19T10:29:24;25.50;99.90
71754;DHT22;59593;51.716;7.016;2022-08-19T10:31:50;25.80;99.90
71754;DHT22;59593;51.716;7.016;2022-08-19T10:34:16;25.50;99.90
71754;DHT22;59593;51.716;7.016;2022-08-19T10:36:43;25.50;99.90
71754;DHT22;59593;51.716;7.016;2022-08-19T10:39:09;25.90;99.90
71754;DHT22;59593;51.716;7.016;2022-08-19T10:41:37;26.40;99.70
71754;DHT22;59593;51.716;7.016;2022-08-19T10:44:06;26.50;98.40
71754;DHT22;59593;51.716;7.016;2022-08-19T10:46:34;26.50;98.70
71754;DHT22;59593;51.716;7.016;2022-08-19T10:49:01;26.40;99.10
71754;DHT22;59593;51.716;7.016;2022-08-19T10:51:27;26.20;97.60
71754;DHT22;59593;51.716;7.016;2022-08-19T10:54:12;25.90;98.40
71754;DHT22;59593;51.716;7.016;2022-08-19T10:56:37;25.30;98.40
71754;DHT22;59593;51.716;7.016;2022-08-19T10:59:29;25.40;98.30
71754;DHT22;59593;51.716;7.016;2022-08-19T11:01:59;25.60;98.70
71754;DHT22;59593;51.716;7.016;2022-08-19T11:04:25;25.90;98.40
71754;DHT22;59593;51.716;7.016;2022-08-19T11:06:51;26.20;97.70
71754;DHT22;59593;51.716;7.016;2022-08-19T11:09:20;26.30;98.00
71754;DHT22;59593;51.716;7.016;2022-08-19T11:11:46;26.50;97.60
71754;DHT22;59593;51.716;7.016;2022-08-19T11:14:15;26.40;97.40
71754;DHT22;59593;51.716;7.016;2022-08-19T11:16:42;25.90;97.70
71754;DHT22;59593;51.716;7.016;2022-08-19T11:19:10;25.50;97.90
71754;DHT22;59593;51.716;7.016;2022-08-19T11:21:38;25.60;97.80
71754;DHT22;59593;51.716;7.016;2022-08-19T11:24:11;25.80;97.80
71754;DHT22;59593;51.716;7.016;2022-08-19T11:26:38;26.20;97.30
71754;DHT22;59593;51.716;7.016;2022-08-19T11:29:05;26.60;97.20
71754;DHT22;59593;51.716;7.016;2022-08-19T11:31:34;26.80;96.80
71754;DHT22;59593;51.716;7.016;2022-08-19T11:34:04;26.70;95.90
71754;DHT22;59593;51.716;7.016;2022-08-19T11:36:30;26.40;96.20
71754;DHT22;59593;51.716;7.016;2022-08-19T11:38:58;26.10;96.70
71754;DHT22;59593;51.716;7.016;2022-08-19T11:41:24;26.50;95.90
71754;DHT22;59593;51.716;7.016;2022-08-19T11:43:51;26.30;96.10
71754;DHT22;59593;51.716;7.016;2022-08-19T11:46:18;26.30;95.90
71754;DHT22;59593;51.716;7.016;2022-08-19T11:48:44;26.60;95.60
71754;DHT22;59593;51.716;7.016;2022-08-19T11:51:13;26.90;94.60
71754;DHT22;59593;51.716;7.016;2022-08-19T11:53:39;26.90;95.20
71754;DHT22;59593;51.716;7.016;2022-08-19T11:56:06;26.60;95.80
71754;DHT22;59593;51.716;7.016;2022-08-19T11:58:33;27.00;95.00
71754;DHT22;59593;51.716;7.016;2022-08-19T12:00:59;26.90;95.00
71754;DHT22;59593;51.716;7.016;2022-08-19T12:03:26;27.10;94.60
71754;DHT22;59593;51.716;7.016;2022-08-19T12:05:53;27.40;93.40
71754;DHT22;59593;51.716;7.016;2022-08-19T12:08:19;27.50;93.30
71754;DHT22;59593;51.716;7.016;2022-08-19T12:10:45;27.50;93.30
71754;DHT22;59593;51.716;7.016;2022-08-19T12:13:12;27.50;93.80
71754;DHT22;59593;51.716;7.016;2022-08-19T12:15:46;27.90;93.30
71754;DHT22;59593;51.716;7.016;2022-08-19T12:18:12;27.90;92.10
71754;DHT22;59593;51.716;7.016;2022-08-19T12:20:43;27.80;91.80
71754;DHT22;59593;51.716;7.016;2022-08-19T12:23:09;27.90;92.00
71754;DHT22;59593;51.716;7.016;2022-08-19T12:25:37;28.30;91.00
71754;DHT22;59593;51.716;7.016;2022-08-19T12:28:03;28.30;90.10
71754;DHT22;59593;51.716;7.016;2022-08-19T12:30:29;28.30;90.40
71754;DHT22;59593;51.716;7.016;2022-08-19T12:32:54;28.40;88.80
71754;DHT22;59593;51.716;7.016;2022-08-19T12:35:20;28.60;87.10
71754;DHT22;59593;51.716;7.016;2022-08-19T12:37:47;28.40;87.70
71754;DHT22;59593;51.716;7.016;2022-08-19T12:40:15;28.40;88.40
71754;DHT22;59593;51.716;7.016;2022-08-19T12:42:40;28.10;87.00
71754;DHT22;59593;51.716;7.016;2022-08-19T12:45:10;27.70;88.10
71754;DHT22;59593;51.716;7.016;2022-08-19T12:47:37;28.10;86.90
71754;DHT22;59593;51.716;7.016;2022-08-19T12:50:03;28.40;84.00
71754;DHT22;59593;51.716;7.016;2022-08-19T12:52:34;28.50;83.40
71754;DHT22;59593;51.716;7.016;2022-08-19T12:55:02;28.50;83.30
71754;DHT22;59593;51.716;7.016;2022-08-19T12:57:28;28.40;82.90
71754;DHT22;59593;51.716;7.016;2022-08-19T12:59:54;28.10;82.60
71754;DHT22;59593;51.716;7.016;2022-08-19T13:02:20;27.90;83.90
71754;DHT22;59593;51.716;7.016;2022-08-19T13:04:46;28.60;83.60
71754;DHT22;59593;51.716;7.016;2022-08-19T13:07:12;29.10;81.80
71754;DHT22;59593;51.716;7.016;2022-08-19T13:09:38;28.50;81.10
71754;DHT22;59593;51.716;7.016;2022-08-19T13:12:06;28.20;81.90
71754;DHT22;59593;51.716;7.016;2022-08-19T13:14:34;28.10;83.20
71754;DHT22;59593;51.716;7.016;2022-08-19T13:17:00;28.50;82.10
71754;DHT22;59593;51.716;7.016;2022-08-19T13:19:26;28.80;81.80
71754;DHT22;59593;51.716;7.016;2022-08-19T13:21:52;28.90;80.40
71754;DHT22;59593;51.716;7.016;2022-08-19T13:24:19;28.90;80.30
71754;DHT22;59593;51.716;7.016;2022-08-19T13:26:45;29.10;79.00
71754;DHT22;59593;51.716;7.016;2022-08-19T13:29:10;29.10;78.10
71754;DHT22;59593;51.716;7.016;2022-08-19T13:31:55;28.30;82.80
71754;DHT22;59593;51.716;7.016;2022-08-19T13:34:39;28.30;83.70
71754;DHT22;59593;51.716;7.016;2022-08-19T13:37:05;28.10;84.40
71754;DHT22;59593;51.716;7.016;2022-08-19T13:39:32;27.70;85.70
71754;DHT22;59593;51.716;7.016;2022-08-19T13:41:59;27.60;86.60
71754;DHT22;59593;51.716;7.016;2022-08-19T13:44:25;27.60;86.40
71754;DHT22;59593;51.716;7.016;2022-08-19T13:46:51;27.40;85.50
71754;DHT22;59593;51.716;7.016;2022-08-19T13:49:19;27.30;84.80
71754;DHT22;59593;51.716;7.016;2022-08-19T13:51:46;27.50;84.00
71754;DHT22;59593;51.716;7.016;2022-08-19T13:54:12;28.20;82.50
71754;DHT22;59593;51.716;7.016;2022-08-19T13:56:43;28.50;83.00
71754;DHT22;59593;51.716;7.016;2022-08-19T13:59:10;28.40;84.70
71754;DHT22;59593;51.716;7.016;2022-08-19T14:01:36;29.00;79.50
71754;DHT22;59593;51.716;7.016;2022-08-19T14:04:03;29.50;79.10
71754;DHT22;59593;51.716;7.016;2022-08-19T14:06:29;29.80;77.20
71754;DHT22;59593;51.716;7.016;2022-08-19T14:08:54;29.60;78.30
71754;DHT22;59593;51.716;7.016;2022-08-19T14:11:20;29.50;76.60
71754;DHT22;59593;51.716;7.016;2022-08-19T14:13:48;29.60;78.20
71754;DHT22;59593;51.716;7.016;2022-08-19T14:16:14;29.60;78.30
71754;DHT22;59593;51.716;7.016;2022-08-19T14:18:41;29.30;79.40
71754;DHT22;59593;51.716;7.016;2022-08-19T14:21:07;28.80;82.00
71754;DHT22;59593;51.716;7.016;2022-08-19T14:23:33;28.70;82.80
71754;DHT22;59593;51.716;7.016;2022-08-19T14:26:11;28.50;83.70
71754;DHT22;59593;51.716;7.016;2022-08-19T14:28:37;28.30;83.80
71754;DHT22;59593;51.716;7.016;2022-08-19T14:31:04;28.30;84.60
71754;DHT22;59593;51.716;7.016;2022-08-19T14:33:30;28.50;86.00
71754;DHT22;59593;51.716;7.016;2022-08-19T14:35:58;29.00;82.10
71754;DHT22;59593;51.716;7.016;2022-08-19T14:38:25;28.50;82.00
71754;DHT22;59593;51.716;7.016;2022-08-19T14:40:51;29.00;81.70
71754;DHT22;59593;51.716;7.016;2022-08-19T14:43:18;29.10;81.00
71754;DHT22;59593;51.716;7.016;2022-08-19T14:45:43;29.00;80.70
71754;DHT22;59593;51.716;7.016;2022-08-19T14:48:09;28.90;79.40
71754;DHT22;59593;51.716;7.016;2022-08-19T14:50:35;28.70;80.80
71754;DHT22;59593;51.716;7.016;2022-08-19T14:53:07;28.80;77.70
71754;DHT22;59593;51.716;7.016;2022-08-19T14:55:33;29.00;77.90
71754;DHT22;59593;51.716;7.016;2022-08-19T14:58:02;29.10;76.70
71754;DHT22;59593;51.716;7.016;2022-08-19T15:00:28;28.90;76.80
71754;DHT22;59593;51.716;7.016;2022-08-19T15:02:54;28.80;76.70
71754;DHT22;59593;51.716;7.016;2022-08-19T15:05:20;28.80;76.80
71754;DHT22;59593;51.716;7.016;2022-08-19T15:07:46;29.00;76.50
71754;DHT22;59593;51.716;7.016;2022-08-19T15:10:14;28.90;76.00
71754;DHT22;59593;51.716;7.016;2022-08-19T15:12:40;28.50;78.40
71754;DHT22;59593;51.716;7.016;2022-08-19T15:15:11;29.00;78.00
71754;DHT22;59593;51.716;7.016;2022-08-19T15:17:43;29.20;75.50
71754;DHT22;59593;51.716;7.016;2022-08-19T15:20:11;29.10;76.30
71754;DHT22;59593;51.716;7.016;2022-08-19T15:22:38;28.90;75.70
71754;DHT22;59593;51.716;7.016;2022-08-19T15:25:06;28.40;75.40
71754;DHT22;59593;51.716;7.016;2022-08-19T15:27:32;29.10;73.90
71754;DHT22;59593;51.716;7.016;2022-08-19T15:30:36;28.80;72.40
71754;DHT22;59593;51.716;7.016;2022-08-19T15:33:02;28.60;71.60
71754;DHT22;59593;51.716;7.016;2022-08-19T15:35:33;28.90;73.60
71754;DHT22;59593;51.716;7.016;2022-08-19T15:37:59;29.00;71.70
71754;DHT22;59593;51.716;7.016;2022-08-19T15:40:25;28.90;71.10
71754;DHT22;59593;51.716;7.016;2022-08-19T15:42:52;28.80;71.60